sensor_id;sensor_type;location;lat;lon;timestamp;pressure;altitude;pressure_sealevel;temperature;humidity
17209;BME280;8720;48.488;9.202;2024-01-10T00:00:43;97781.91;;;0.31;54.82
17209;BME280;8720;48.488;9.202;2024-01-10T00:03:12;97779.41;;;0.34;54.71
17209;BME280;8720;48.488;9.202;2024-01-10T00:05:39;97777.75;;;0.36;54.80
17209;BME280;8720;48.488;9.202;2024-01-10T00:08:07;97778.66;;;0.38;54.75
17209;BME280;8720;48.488;9.202;2024-01-10T00:10:37;97774.44;;;0.40;54.72
17209;BME280;8720;48.488;9.202;2024-01-10T00:13:06;97782.16;;;0.40;55.05
17209;BME280;8720;48.488;9.202;2024-01-10T00:15:34;97775.34;;;0.42;54.93
17209;BME280;8720;48.488;9.202;2024-01-10T00:18:01;97778.84;;;0.44;54.88
17209;BME280;8720;48.488;9.202;2024-01-10T00:20:30;97775.47;;;0.46;54.80
17209;BME280;8720;48.488;9.202;2024-01-10T00:22:58;97777.25;;;0.49;54.99
17209;BME280;8720;48.488;9.202;2024-01-10T00:25:25;97772.13;;;0.50;54.95
17209;BME280;8720;48.488;9.202;2024-01-10T00:27:53;97773.00;;;0.51;55.12
17209;BME280;8720;48.488;9.202;2024-01-10T00:30:21;97773.84;;;0.50;55.06
17209;BME280;8720;48.488;9.202;2024-01-10T00:32:48;97761.63;;;0.43;55.30
17209;BME280;8720;48.488;9.202;2024-01-10T00:35:16;97767.78;;;0.48;55.25
17209;BME280;8720;48.488;9.202;2024-01-10T00:37:45;97734.59;;;0.26;54.82
17209;BME280;8720;48.488;9.202;2024-01-10T00:40:12;97761.75;;;0.47;55.14
17209;BME280;8720;48.488;9.202;2024-01-10T00:42:39;97760.03;;;0.46;55.34
17209;BME280;8720;48.488;9.202;2024-01-10T00:45:08;97762.63;;;0.46;55.01
17209;BME280;8720;48.488;9.202;2024-01-10T00:47:35;97754.94;;;0.48;55.17
17209;BME280;8720;48.488;9.202;2024-01-10T00:50:03;97761.00;;;0.50;55.19
17209;BME280;8720;48.488;9.202;2024-01-10T00:52:30;97754.19;;;0.52;55.06
17209;BME280;8720;48.488;9.202;2024-01-10T00:54:59;97757.66;;;0.54;55.17
17209;BME280;8720;48.488;9.202;2024-01-10T00:57:29;97763.72;;;0.56;55.22
17209;BME280;8720;48.488;9.202;2024-01-10T00:59:56;97756.94;;;0.59;55.10
17209;BME280;8720;48.488;9.202;2024-01-10T01:02:24;97759.56;;;0.61;55.25
17209;BME280;8720;48.488;9.202;2024-01-10T01:04:51;97760.47;;;0.63;55.36
17209;BME280;8720;48.488;9.202;2024-01-10T01:07:18;97757.97;;;0.66;55.23
17209;BME280;8720;48.488;9.202;2024-01-10T01:09:47;97755.50;;;0.69;55.09
17209;BME280;8720;48.488;9.202;2024-01-10T01:12:16;97750.38;;;0.70;55.18
17209;BME280;8720;48.488;9.202;2024-01-10T01:14:43;97753.81;;;0.71;55.08
17209;BME280;8720;48.488;9.202;2024-01-10T01:17:10;97720.63;;;0.49;55.31
17209;BME280;8720;48.488;9.202;2024-01-10T01:19:38;97758.13;;;0.72;54.97
17209;BME280;8720;48.488;9.202;2024-01-10T01:22:05;97754.63;;;0.70;55.17
17209;BME280;8720;48.488;9.202;2024-01-10T01:24:32;97752.03;;;0.68;55.13
17209;BME280;8720;48.488;9.202;2024-01-10T01:27:00;97750.38;;;0.70;55.25
17209;BME280;8720;48.488;9.202;2024-01-10T01:29:31;97750.38;;;0.70;54.93
17209;BME280;8720;48.488;9.202;2024-01-10T01:31:58;97753.78;;;0.69;55.38
17209;BME280;8720;48.488;9.202;2024-01-10T01:34:26;97746.94;;;0.71;55.23
17209;BME280;8720;48.488;9.202;2024-01-10T01:36:53;97752.97;;;0.72;55.25
17209;BME280;8720;48.488;9.202;2024-01-10T01:39:21;97752.97;;;0.72;55.28
17209;BME280;8720;48.488;9.202;2024-01-10T01:41:48;97754.84;;;0.77;55.53
17209;BME280;8720;48.488;9.202;2024-01-10T01:44:15;97754.75;;;0.74;55.37
17209;BME280;8720;48.488;9.202;2024-01-10T01:46:45;97759.31;;;0.84;55.27
17209;BME280;8720;48.488;9.202;2024-01-10T01:49:15;97754.22;;;0.86;55.24
17209;BME280;8720;48.488;9.202;2024-01-10T01:51:42;97758.50;;;0.87;55.16
17209;BME280;8720;48.488;9.202;2024-01-10T01:54:10;97755.19;;;0.91;55.40
17209;BME280;8720;48.488;9.202;2024-01-10T01:56:38;97764.72;;;0.95;55.42
17209;BME280;8720;48.488;9.202;2024-01-10T01:59:06;97758.00;;;1.00;55.29
17209;BME280;8720;48.488;9.202;2024-01-10T02:01:33;97752.09;;;1.04;55.17
17209;BME280;8720;48.488;9.202;2024-01-10T02:04:03;97751.38;;;1.10;55.27
17209;BME280;8720;48.488;9.202;2024-01-10T02:06:30;97762.63;;;1.13;55.16
17209;BME280;8720;48.488;9.202;2024-01-10T02:08:58;97752.38;;;1.16;55.19
17209;BME280;8720;48.488;9.202;2024-01-10T02:11:26;97744.75;;;1.21;55.02
17209;BME280;8720;48.488;9.202;2024-01-10T02:13:54;97758.63;;;1.26;55.28
17209;BME280;8720;48.488;9.202;2024-01-10T02:16:21;97749.31;;;1.31;55.37
17209;BME280;8720;48.488;9.202;2024-01-10T02:18:50;97746.81;;;1.35;55.18
17209;BME280;8720;48.488;9.202;2024-01-10T02:21:22;97737.38;;;1.36;54.98
17209;BME280;8720;48.488;9.202;2024-01-10T02:23:50;97740.97;;;1.42;54.79
17209;BME280;8720;48.488;9.202;2024-01-10T02:26:18;97736.75;;;1.46;55.02
17209;BME280;8720;48.488;9.202;2024-01-10T02:28:46;97743.72;;;1.50;54.85
17209;BME280;8720;48.488;9.202;2024-01-10T02:31:13;97740.38;;;1.54;54.84
17209;BME280;8720;48.488;9.202;2024-01-10T02:33:40;97738.72;;;1.56;54.84
17209;BME280;8720;48.488;9.202;2024-01-10T02:36:08;97738.78;;;1.60;54.59
17209;BME280;8720;48.488;9.202;2024-01-10T02:38:35;97741.47;;;1.63;54.77
17209;BME280;8720;48.488;9.202;2024-01-10T02:41:03;97732.81;;;1.61;54.92
17209;BME280;8720;48.488;9.202;2024-01-10T02:43:31;97729.56;;;1.70;54.64
17209;BME280;8720;48.488;9.202;2024-01-10T02:45:59;97733.09;;;1.73;54.68
17209;BME280;8720;48.488;9.202;2024-01-10T02:48:26;97730.53;;;1.75;54.59
17209;BME280;8720;48.488;9.202;2024-01-10T02:50:54;97732.28;;;1.77;54.72
17209;BME280;8720;48.488;9.202;2024-01-10T02:53:22;97723.75;;;1.80;54.76
17209;BME280;8720;48.488;9.202;2024-01-10T02:55:50;97723.72;;;1.78;54.73
17209;BME280;8720;48.488;9.202;2024-01-10T02:58:17;97729.06;;;1.86;54.90
17209;BME280;8720;48.488;9.202;2024-01-10T03:03:30;97720.41;;;1.84;54.68
17209;BME280;8720;48.488;9.202;2024-01-10T03:05:57;97723.00;;;1.85;54.86
17209;BME280;8720;48.488;9.202;2024-01-10T03:08:25;97717.84;;;1.85;54.76
17209;BME280;8720;48.488;9.202;2024-01-10T03:10:52;97718.78;;;1.89;54.66
17209;BME280;8720;48.488;9.202;2024-01-10T03:13:20;97712.78;;;1.89;54.51
17209;BME280;8720;48.488;9.202;2024-01-10T03:15:47;97718.75;;;1.88;54.41
17209;BME280;8720;48.488;9.202;2024-01-10T03:18:15;97712.66;;;1.82;54.62
17209;BME280;8720;48.488;9.202;2024-01-10T03:20:44;97711.88;;;1.87;54.63
17209;BME280;8720;48.488;9.202;2024-01-10T03:23:12;97708.41;;;1.86;54.31
17209;BME280;8720;48.488;9.202;2024-01-10T03:25:40;97699.78;;;1.84;54.44
17209;BME280;8720;48.488;9.202;2024-01-10T03:28:08;97707.63;;;1.89;54.44
17209;BME280;8720;48.488;9.202;2024-01-10T03:30:35;97703.31;;;1.89;54.62
17209;BME280;8720;48.488;9.202;2024-01-10T03:33:03;97704.22;;;1.91;54.44
17209;BME280;8720;48.488;9.202;2024-01-10T03:35:30;97706.00;;;1.94;54.59
17209;BME280;8720;48.488;9.202;2024-01-10T03:37:59;97710.34;;;1.96;54.70
17209;BME280;8720;48.488;9.202;2024-01-10T03:40:27;97698.34;;;1.97;54.25
17209;BME280;8720;48.488;9.202;2024-01-10T03:42:55;97694.03;;;1.97;54.54
17209;BME280;8720;48.488;9.202;2024-01-10T03:45:22;97693.97;;;1.94;54.80
17209;BME280;8720;48.488;9.202;2024-01-10T03:47:51;97702.63;;;1.96;54.74
17209;BME280;8720;48.488;9.202;2024-01-10T03:50:19;97703.44;;;1.95;54.67
17209;BME280;8720;48.488;9.202;2024-01-10T03:52:47;97706.88;;;1.94;54.56
17209;BME280;8720;48.488;9.202;2024-01-10T03:55:16;97702.50;;;1.92;54.62
17209;BME280;8720;48.488;9.202;2024-01-10T03:57:43;97711.13;;;1.92;54.69
17209;BME280;8720;48.488;9.202;2024-01-10T04:00:12;97705.13;;;1.93;54.86
17209;BME280;8720;48.488;9.202;2024-01-10T04:02:40;97712.03;;;1.94;54.60
17209;BME280;8720;48.488;9.202;2024-01-10T04:05:08;97714.59;;;1.94;54.65
17209;BME280;8720;48.488;9.202;2024-01-10T04:07:40;97710.34;;;1.95;54.85
17209;BME280;8720;48.488;9.202;2024-01-10T04:10:09;97701.63;;;1.91;54.72
17209;BME280;8720;48.488;9.202;2024-01-10T04:12:39;97715.50;;;1.96;54.65
17209;BME280;8720;48.488;9.202;2024-01-10T04:15:07;97716.34;;;1.95;54.65
17209;BME280;8720;48.488;9.202;2024-01-10T04:17:35;97713.75;;;1.95;54.82
17209;BME280;8720;48.488;9.202;2024-01-10T04:20:03;97714.59;;;1.93;54.60
17209;BME280;8720;48.488;9.202;2024-01-10T04:22:31;97712.78;;;1.89;54.73
17209;BME280;8720;48.488;9.202;2024-01-10T04:25:00;97711.84;;;1.85;54.58
17209;BME280;8720;48.488;9.202;2024-01-10T04:27:28;97712.69;;;1.85;54.75
17209;BME280;8720;48.488;9.202;2024-01-10T04:29:56;97716.09;;;1.83;54.94
17209;BME280;8720;48.488;9.202;2024-01-10T04:32:24;97705.69;;;1.78;55.02
17209;BME280;8720;48.488;9.202;2024-01-10T04:34:51;97704.88;;;1.81;55.09
17209;BME280;8720;48.488;9.202;2024-01-10T04:37:19;97698.78;;;1.77;55.06
17209;BME280;8720;48.488;9.202;2024-01-10T04:39:46;97700.63;;;1.83;55.17
17209;BME280;8720;48.488;9.202;2024-01-10T04:42:14;97713.63;;;1.89;55.14
17209;BME280;8720;48.488;9.202;2024-01-10T04:44:41;97708.53;;;1.91;55.02
17209;BME280;8720;48.488;9.202;2024-01-10T04:47:10;97713.72;;;1.94;54.91
17209;BME280;8720;48.488;9.202;2024-01-10T04:49:38;97714.63;;;1.96;55.14
17209;BME280;8720;48.488;9.202;2024-01-10T04:52:06;97715.53;;;1.98;55.32
17209;BME280;8720;48.488;9.202;2024-01-10T04:54:33;97716.47;;;2.01;55.11
17209;BME280;8720;48.488;9.202;2024-01-10T04:57:01;97718.28;;;2.05;54.99
17209;BME280;8720;48.488;9.202;2024-01-10T04:59:28;97718.28;;;2.07;55.03
17209;BME280;8720;48.488;9.202;2024-01-10T05:01:56;97718.38;;;2.10;54.81
17209;BME280;8720;48.488;9.202;2024-01-10T05:04:25;97719.25;;;2.10;55.19
17209;BME280;8720;48.488;9.202;2024-01-10T05:06:52;97711.44;;;2.09;55.10
17209;BME280;8720;48.488;9.202;2024-01-10T05:09:20;97711.56;;;2.13;54.92
17209;BME280;8720;48.488;9.202;2024-01-10T05:11:47;97716.75;;;2.16;54.93
17209;BME280;8720;48.488;9.202;2024-01-10T05:14:17;97720.22;;;2.17;54.84
17209;BME280;8720;48.488;9.202;2024-01-10T05:16:45;97709.06;;;2.18;54.82
17209;BME280;8720;48.488;9.202;2024-01-10T05:19:13;97712.59;;;2.21;54.94
17209;BME280;8720;48.488;9.202;2024-01-10T05:21:42;97710.81;;;2.20;54.83
17209;BME280;8720;48.488;9.202;2024-01-10T05:24:10;97710.03;;;2.23;54.68
17209;BME280;8720;48.488;9.202;2024-01-10T05:26:38;97705.66;;;2.20;54.87
17209;BME280;8720;48.488;9.202;2024-01-10T05:29:06;97704.75;;;2.18;54.78
17209;BME280;8720;48.488;9.202;2024-01-10T05:31:33;97712.56;;;2.20;54.80
17209;BME280;8720;48.488;9.202;2024-01-10T05:34:02;97706.44;;;2.16;54.77
17209;BME280;8720;48.488;9.202;2024-01-10T05:36:31;97714.13;;;2.13;54.63
17209;BME280;8720;48.488;9.202;2024-01-10T05:39:01;97718.41;;;2.11;54.66
17209;BME280;8720;48.488;9.202;2024-01-10T05:41:28;97726.03;;;2.07;54.70
17209;BME280;8720;48.488;9.202;2024-01-10T05:43:55;97725.97;;;2.02;54.57
17209;BME280;8720;48.488;9.202;2024-01-10T05:46:23;97730.13;;;1.97;54.54
17209;BME280;8720;48.488;9.202;2024-01-10T05:48:50;97731.78;;;1.94;54.72
17209;BME280;8720;48.488;9.202;2024-01-10T05:51:17;97726.47;;;1.86;54.58
17209;BME280;8720;48.488;9.202;2024-01-10T05:53:45;97725.53;;;1.82;54.53
17209;BME280;8720;48.488;9.202;2024-01-10T05:56:13;97721.97;;;1.77;54.65
17209;BME280;8720;48.488;9.202;2024-01-10T05:58:41;97721.03;;;1.72;54.48
17209;BME280;8720;48.488;9.202;2024-01-10T06:01:09;97723.56;;;1.69;54.53
17209;BME280;8720;48.488;9.202;2024-01-10T06:03:36;97721.75;;;1.65;54.50
17209;BME280;8720;48.488;9.202;2024-01-10T06:06:05;97727.66;;;1.61;54.43
17209;BME280;8720;48.488;9.202;2024-01-10T06:08:33;97731.91;;;1.59;54.41
17209;BME280;8720;48.488;9.202;2024-01-10T06:11:03;97725.72;;;1.51;54.55
17209;BME280;8720;48.488;9.202;2024-01-10T06:13:36;97731.72;;;1.50;54.25
17209;BME280;8720;48.488;9.202;2024-01-10T06:16:04;97724.69;;;1.45;54.18
17209;BME280;8720;48.488;9.202;2024-01-10T06:18:31;97734.06;;;1.41;54.40
17209;BME280;8720;48.488;9.202;2024-01-10T06:21:00;97720.22;;;1.36;54.42
17209;BME280;8720;48.488;9.202;2024-01-10T06:23:27;97719.16;;;1.28;54.46
17209;BME280;8720;48.488;9.202;2024-01-10T06:25:54;97721.78;;;1.30;54.61
17209;BME280;8720;48.488;9.202;2024-01-10T06:28:22;97721.69;;;1.25;54.35
17209;BME280;8720;48.488;9.202;2024-01-10T06:30:51;97725.88;;;1.22;54.49
17209;BME280;8720;48.488;9.202;2024-01-10T06:33:19;97720.63;;;1.17;54.52
17209;BME280;8720;48.488;9.202;2024-01-10T06:35:47;97716.16;;;1.10;54.35
17209;BME280;8720;48.488;9.202;2024-01-10T06:38:14;97721.31;;;1.10;54.49
17209;BME280;8720;48.488;9.202;2024-01-10T06:40:43;97722.94;;;1.07;54.59
17209;BME280;8720;48.488;9.202;2024-01-10T06:43:13;97726.25;;;1.01;54.62
17209;BME280;8720;48.488;9.202;2024-01-10T06:45:41;97713.88;;;0.86;54.74
17209;BME280;8720;48.488;9.202;2024-01-10T06:48:10;97733.00;;;0.96;54.83
17209;BME280;8720;48.488;9.202;2024-01-10T06:50:38;97738.97;;;0.95;54.65
17209;BME280;8720;48.488;9.202;2024-01-10T06:53:06;97741.50;;;0.92;54.73
17209;BME280;8720;48.488;9.202;2024-01-10T06:55:34;97748.31;;;0.90;54.79
17209;BME280;8720;48.488;9.202;2024-01-10T06:58:02;97739.66;;;0.88;54.98
17209;BME280;8720;48.488;9.202;2024-01-10T07:00:30;97743.06;;;0.87;54.92
17209;BME280;8720;48.488;9.202;2024-01-10T07:03:00;97750.78;;;0.87;54.85
17209;BME280;8720;48.488;9.202;2024-01-10T07:05:30;97742.09;;;0.82;55.31
17209;BME280;8720;48.488;9.202;2024-01-10T07:07:57;97741.38;;;0.87;55.00
17209;BME280;8720;48.488;9.202;2024-01-10T07:10:25;97749.09;;;0.87;54.81
17209;BME280;8720;48.488;9.202;2024-01-10T07:12:54;97755.13;;;0.88;55.28
17209;BME280;8720;48.488;9.202;2024-01-10T07:15:21;97760.34;;;0.91;55.23
17209;BME280;8720;48.488;9.202;2024-01-10T07:17:49;97760.44;;;0.94;55.28
17209;BME280;8720;48.488;9.202;2024-01-10T07:20:17;97765.63;;;0.97;55.11
17209;BME280;8720;48.488;9.202;2024-01-10T07:22:45;97760.63;;;1.02;55.22
17209;BME280;8720;48.488;9.202;2024-01-10T07:25:13;97775.34;;;1.07;55.14
17209;BME280;8720;48.488;9.202;2024-01-10T07:27:41;97777.97;;;1.10;55.28
17209;BME280;8720;48.488;9.202;2024-01-10T07:30:10;97784.97;;;1.14;55.29
17209;BME280;8720;48.488;9.202;2024-01-10T07:32:40;97790.19;;;1.17;55.15
17209;BME280;8720;48.488;9.202;2024-01-10T07:35:09;97760.00;;;1.12;55.30
17209;BME280;8720;48.488;9.202;2024-01-10T07:37:37;97783.47;;;1.24;55.05
17209;BME280;8720;48.488;9.202;2024-01-10T07:40:09;97781.88;;;1.27;55.20
17209;BME280;8720;48.488;9.202;2024-01-10T07:42:37;97783.66;;;1.31;55.36
17209;BME280;8720;48.488;9.202;2024-01-10T07:45:06;97795.78;;;1.35;55.24
17209;BME280;8720;48.488;9.202;2024-01-10T07:47:35;97789.81;;;1.36;55.33
17209;BME280;8720;48.488;9.202;2024-01-10T07:50:05;97784.75;;;1.41;55.14
17209;BME280;8720;48.488;9.202;2024-01-10T07:52:33;97788.28;;;1.44;55.21
17209;BME280;8720;48.488;9.202;2024-01-10T07:55:02;97783.16;;;1.46;55.48
17209;BME280;8720;48.488;9.202;2024-01-10T07:57:32;97791.81;;;1.48;55.04
17209;BME280;8720;48.488;9.202;2024-01-10T08:00:00;97786.72;;;1.51;55.06
17209;BME280;8720;48.488;9.202;2024-01-10T08:02:34;97784.13;;;1.51;55.13
17209;BME280;8720;48.488;9.202;2024-01-10T08:05:02;97791.03;;;1.52;54.99
17209;BME280;8720;48.488;9.202;2024-01-10T08:07:34;97791.94;;;1.54;54.95
17209;BME280;8720;48.488;9.202;2024-01-10T08:10:04;97792.78;;;1.54;54.93
17209;BME280;8720;48.488;9.202;2024-01-10T08:12:33;97793.69;;;1.55;55.08
17209;BME280;8720;48.488;9.202;2024-01-10T08:15:01;97797.13;;;1.55;54.99
17209;BME280;8720;48.488;9.202;2024-01-10T08:17:29;97804.03;;;1.56;54.87
17209;BME280;8720;48.488;9.202;2024-01-10T08:19:57;97802.28;;;1.55;54.76
17209;BME280;8720;48.488;9.202;2024-01-10T08:22:26;97810.09;;;1.58;54.85
17209;BME280;8720;48.488;9.202;2024-01-10T08:24:54;97814.44;;;1.61;54.77
17209;BME280;8720;48.488;9.202;2024-01-10T08:27:22;97811.88;;;1.61;54.66
17209;BME280;8720;48.488;9.202;2024-01-10T08:29:51;97824.75;;;1.61;54.86
17209;BME280;8720;48.488;9.202;2024-01-10T08:32:19;97820.50;;;1.61;55.07
17209;BME280;8720;48.488;9.202;2024-01-10T08:34:47;97794.56;;;1.55;55.13
17209;BME280;8720;48.488;9.202;2024-01-10T08:37:17;97819.75;;;1.67;54.96
17209;BME280;8720;48.488;9.202;2024-01-10T08:39:44;97819.53;;;1.95;53.70
17209;BME280;8720;48.488;9.202;2024-01-10T08:42:13;97822.28;;;2.03;54.14
17209;BME280;8720;48.488;9.202;2024-01-10T08:44:41;97827.50;;;2.04;54.61
17209;BME280;8720;48.488;9.202;2024-01-10T08:47:10;97827.50;;;2.06;54.69
17209;BME280;8720;48.488;9.202;2024-01-10T08:49:38;97829.31;;;2.10;54.95
17209;BME280;8720;48.488;9.202;2024-01-10T08:52:05;97830.28;;;2.15;55.03
17209;BME280;8720;48.488;9.202;2024-01-10T08:54:34;97829.50;;;2.19;55.03
17209;BME280;8720;48.488;9.202;2024-01-10T08:57:01;97833.06;;;2.24;54.75
17209;BME280;8720;48.488;9.202;2024-01-10T08:59:29;97835.72;;;2.27;54.80
17209;BME280;8720;48.488;9.202;2024-01-10T09:01:57;97836.63;;;2.29;55.10
17209;BME280;8720;48.488;9.202;2024-01-10T09:04:26;97831.47;;;2.30;54.76
17209;BME280;8720;48.488;9.202;2024-01-10T09:06:54;97842.75;;;2.35;54.95
17209;BME280;8720;48.488;9.202;2024-01-10T09:09:21;97844.53;;;2.38;54.82
17209;BME280;8720;48.488;9.202;2024-01-10T09:11:49;97837.72;;;2.41;55.05
17209;BME280;8720;48.488;9.202;2024-01-10T09:14:17;97849.94;;;2.48;54.92
17209;BME280;8720;48.488;9.202;2024-01-10T09:16:45;97848.31;;;2.53;54.93
17209;BME280;8720;48.488;9.202;2024-01-10T09:19:12;97851.00;;;2.58;55.04
17209;BME280;8720;48.488;9.202;2024-01-10T09:21:41;97851.94;;;2.61;54.99
17209;BME280;8720;48.488;9.202;2024-01-10T09:24:09;97853.72;;;2.65;55.17
17209;BME280;8720;48.488;9.202;2024-01-10T09:26:37;97853.81;;;2.70;55.43
17209;BME280;8720;48.488;9.202;2024-01-10T09:29:05;97849.63;;;2.75;55.24
17209;BME280;8720;48.488;9.202;2024-01-10T09:31:33;97851.44;;;2.81;55.38
17209;BME280;8720;48.488;9.202;2024-01-10T09:34:00;97857.56;;;2.86;55.19
17209;BME280;8720;48.488;9.202;2024-01-10T09:36:28;97835.00;;;2.75;55.06
17209;BME280;8720;48.488;9.202;2024-01-10T09:38:57;97863.78;;;2.95;55.31
17209;BME280;8720;48.488;9.202;2024-01-10T09:41:28;97863.06;;;3.02;55.24
17209;BME280;8720;48.488;9.202;2024-01-10T09:43:58;97859.69;;;3.06;55.19
17209;BME280;8720;48.488;9.202;2024-01-10T09:46:27;97852.09;;;3.14;55.23
17209;BME280;8720;48.488;9.202;2024-01-10T09:48:56;97851.28;;;3.18;54.85
17209;BME280;8720;48.488;9.202;2024-01-10T09:51:25;97849.66;;;3.23;54.97
17209;BME280;8720;48.488;9.202;2024-01-10T09:53:57;97847.94;;;3.23;55.04
17209;BME280;8720;48.488;9.202;2024-01-10T09:56:26;97849.66;;;3.24;55.18
17209;BME280;8720;48.488;9.202;2024-01-10T09:58:55;97857.53;;;3.30;55.11
17209;BME280;8720;48.488;9.202;2024-01-10T10:01:25;97848.16;;;3.35;55.06
17209;BME280;8720;48.488;9.202;2024-01-10T10:03:55;97845.63;;;3.38;54.96
17209;BME280;8720;48.488;9.202;2024-01-10T10:06:23;97845.72;;;3.43;55.13
17209;BME280;8720;48.488;9.202;2024-01-10T10:08:51;97838.00;;;3.47;54.88
17209;BME280;8720;48.488;9.202;2024-01-10T10:11:20;97838.94;;;3.51;55.02
17209;BME280;8720;48.488;9.202;2024-01-10T10:13:48;97835.50;;;3.50;55.09
17209;BME280;8720;48.488;9.202;2024-01-10T10:16:24;97843.38;;;3.59;54.88
17209;BME280;8720;48.488;9.202;2024-01-10T10:18:52;97847.75;;;3.63;55.13
17209;BME280;8720;48.488;9.202;2024-01-10T10:21:25;97843.53;;;3.68;54.92
17209;BME280;8720;48.488;9.202;2024-01-10T10:24:01;97841.03;;;3.73;55.04
17209;BME280;8720;48.488;9.202;2024-01-10T10:26:33;97837.63;;;3.76;55.19
17209;BME280;8720;48.488;9.202;2024-01-10T10:29:00;97832.47;;;3.77;55.31
17209;BME280;8720;48.488;9.202;2024-01-10T10:31:30;97833.34;;;3.78;54.94
17209;BME280;8720;48.488;9.202;2024-01-10T10:34:01;97828.19;;;3.79;55.13
17209;BME280;8720;48.488;9.202;2024-01-10T10:36:30;97819.50;;;3.76;55.20
17209;BME280;8720;48.488;9.202;2024-01-10T10:39:00;97829.97;;;3.83;55.30
17209;BME280;8720;48.488;9.202;2024-01-10T10:41:32;97834.34;;;3.87;55.44
17209;BME280;8720;48.488;9.202;2024-01-10T10:44:04;97832.69;;;3.94;55.45
17209;BME280;8720;48.488;9.202;2024-01-10T10:46:35;97837.97;;;4.00;55.33
17209;BME280;8720;48.488;9.202;2024-01-10T10:49:11;97832.00;;;4.05;55.25
17209;BME280;8720;48.488;9.202;2024-01-10T10:51:40;97827.78;;;4.09;55.39
17209;BME280;8720;48.488;9.202;2024-01-10T10:54:09;97819.22;;;4.14;55.37
17209;BME280;8720;48.488;9.202;2024-01-10T10:56:43;97825.31;;;4.18;54.97
17209;BME280;8720;48.488;9.202;2024-01-10T10:59:13;97821.03;;;4.21;55.15
17209;BME280;8720;48.488;9.202;2024-01-10T11:01:44;97815.78;;;4.17;54.97
17209;BME280;8720;48.488;9.202;2024-01-10T11:04:13;97826.28;;;4.26;55.21
17209;BME280;8720;48.488;9.202;2024-01-10T11:06:41;97818.59;;;4.32;55.21
17209;BME280;8720;48.488;9.202;2024-01-10T11:09:11;97828.16;;;4.37;55.05
17209;BME280;8720;48.488;9.202;2024-01-10T11:12:10;97818.69;;;4.41;55.33
17209;BME280;8720;48.488;9.202;2024-01-10T11:15:02;97820.47;;;4.45;55.30
17209;BME280;8720;48.488;9.202;2024-01-10T11:18:06;97817.09;;;4.49;55.54
17209;BME280;8720;48.488;9.202;2024-01-10T11:20:59;97824.06;;;4.56;55.54
17209;BME280;8720;48.488;9.202;2024-01-10T11:23:44;97824.16;;;4.62;55.44
17209;BME280;8720;48.488;9.202;2024-01-10T11:26:15;97822.44;;;4.66;55.41
17209;BME280;8720;48.488;9.202;2024-01-10T11:28:46;97818.19;;;4.71;55.41
17209;BME280;8720;48.488;9.202;2024-01-10T11:31:15;97820.81;;;4.74;55.31
17209;BME280;8720;48.488;9.202;2024-01-10T11:33:43;97813.97;;;4.80;55.41
17209;BME280;8720;48.488;9.202;2024-01-10T11:36:14;97809.75;;;4.88;55.41
17209;BME280;8720;48.488;9.202;2024-01-10T11:38:47;97813.28;;;4.93;55.08
17209;BME280;8720;48.488;9.202;2024-01-10T11:41:22;97804.69;;;4.97;55.12
17209;BME280;8720;48.488;9.202;2024-01-10T11:44:30;97808.19;;;5.02;55.59
17209;BME280;8720;48.488;9.202;2024-01-10T11:46:59;97800.38;;;4.99;55.36
17209;BME280;8720;48.488;9.202;2024-01-10T11:49:28;97801.34;;;5.12;55.29
17209;BME280;8720;48.488;9.202;2024-01-10T11:51:57;97786.59;;;5.06;55.25
17209;BME280;8720;48.488;9.202;2024-01-10T11:54:41;97804.84;;;5.17;55.39
17209;BME280;8720;48.488;9.202;2024-01-10T11:57:11;97799.66;;;5.17;55.36
17209;BME280;8720;48.488;9.202;2024-01-10T11:59:43;97806.59;;;5.19;55.00
17209;BME280;8720;48.488;9.202;2024-01-10T12:02:12;97804.97;;;5.26;55.25
17209;BME280;8720;48.488;9.202;2024-01-10T12:04:40;97807.63;;;5.33;55.33
17209;BME280;8720;48.488;9.202;2024-01-10T12:07:09;97805.03;;;5.36;55.09
17209;BME280;8720;48.488;9.202;2024-01-10T12:09:37;97792.94;;;5.38;55.24
17209;BME280;8720;48.488;9.202;2024-01-10T12:12:06;97781.69;;;5.36;55.17
17209;BME280;8720;48.488;9.202;2024-01-10T12:14:34;97794.78;;;5.50;55.42
17209;BME280;8720;48.488;9.202;2024-01-10T12:17:05;97787.91;;;5.57;54.81
17209;BME280;8720;48.488;9.202;2024-01-10T12:19:34;97788.81;;;5.62;55.03
17209;BME280;8720;48.488;9.202;2024-01-10T12:22:03;97794.00;;;5.63;54.91
17209;BME280;8720;48.488;9.202;2024-01-10T12:24:32;97779.31;;;5.59;54.84
17209;BME280;8720;48.488;9.202;2024-01-10T12:26:59;97784.53;;;5.67;54.92
17209;BME280;8720;48.488;9.202;2024-01-10T12:29:27;97792.34;;;5.70;54.98
17209;BME280;8720;48.488;9.202;2024-01-10T12:31:55;97781.97;;;5.70;55.10
17209;BME280;8720;48.488;9.202;2024-01-10T12:34:24;97780.25;;;5.73;54.91
17209;BME280;8720;48.488;9.202;2024-01-10T12:36:55;97782.88;;;5.76;54.88
17209;BME280;8720;48.488;9.202;2024-01-10T12:39:23;97775.09;;;5.81;54.87
17209;BME280;8720;48.488;9.202;2024-01-10T12:41:51;97776.91;;;5.86;55.09
17209;BME280;8720;48.488;9.202;2024-01-10T12:44:19;97779.56;;;5.94;54.90
17209;BME280;8720;48.488;9.202;2024-01-10T12:46:51;97779.59;;;6.00;54.92
17209;BME280;8720;48.488;9.202;2024-01-10T12:49:24;97783.09;;;6.05;54.85
17209;BME280;8720;48.488;9.202;2024-01-10T12:51:51;97785.69;;;6.08;54.76
17209;BME280;8720;48.488;9.202;2024-01-10T12:54:19;97776.19;;;6.10;54.77
17209;BME280;8720;48.488;9.202;2024-01-10T12:56:49;97778.81;;;6.13;54.68
17209;BME280;8720;48.488;9.202;2024-01-10T12:59:16;97779.66;;;6.12;54.74
17209;BME280;8720;48.488;9.202;2024-01-10T13:01:44;97776.22;;;6.14;54.82
17209;BME280;8720;48.488;9.202;2024-01-10T13:04:12;97774.50;;;6.15;54.73
17209;BME280;8720;48.488;9.202;2024-01-10T13:06:40;97773.66;;;6.19;54.49
17209;BME280;8720;48.488;9.202;2024-01-10T13:09:08;97776.25;;;6.23;54.80
17209;BME280;8720;48.488;9.202;2024-01-10T13:11:36;97775.41;;;6.29;54.66
17209;BME280;8720;48.488;9.202;2024-01-10T13:14:03;97774.56;;;6.33;54.66
17209;BME280;8720;48.488;9.202;2024-01-10T13:16:31;97767.66;;;6.33;54.79
17209;BME280;8720;48.488;9.202;2024-01-10T13:18:59;97769.38;;;6.33;54.66
17209;BME280;8720;48.488;9.202;2024-01-10T13:21:26;97778.03;;;6.32;54.71
17209;BME280;8720;48.488;9.202;2024-01-10T13:23:55;97767.66;;;6.32;54.77
17209;BME280;8720;48.488;9.202;2024-01-10T13:26:22;97770.25;;;6.33;54.80
17209;BME280;8720;48.488;9.202;2024-01-10T13:28:50;97777.16;;;6.34;54.76
17209;BME280;8720;48.488;9.202;2024-01-10T13:31:18;97775.44;;;6.35;54.90
17209;BME280;8720;48.488;9.202;2024-01-10T13:33:45;97777.19;;;6.36;54.97